Time;durP1;ratioP1;P1;durP2;ratioP2;P2;SDS_P1;SDS_P2;PMS_P1;PMS_P2;Temp;Humidity;BMP_temperature;BMP_pressure;BME280_temperature;BME280_humidity;BME280_pressure;Samples;Min_cycle;Max_cycle;Signal;HPM_P1;HPM_P2
2023/05/03 00:02:07;;;;;;;1.30;1.30;;;10.60;99.90;;;;;;5012163;28;20212;-64
2023/05/03 00:04:33;;;;;;;1.13;1.13;;;10.70;99.90;;;;;;5012140;28;20296;-64
2023/05/03 00:07:00;;;;;;;1.08;1.08;;;10.60;99.90;;;;;;5011931;28;20223;-63
2023/05/03 00:09:27;;;;;;;1.15;1.15;;;10.60;99.90;;;;;;5010827;28;20229;-63
2023/05/03 00:11:54;;;;;;;1.15;1.15;;;10.60;99.90;;;;;;5011979;28;20211;-63
2023/05/03 00:14:21;;;;;;;1.20;1.20;;;10.70;99.90;;;;;;5011877;28;20205;-63
2023/05/03 00:16:48;;;;;;;1.40;1.20;;;10.50;99.90;;;;;;5011790;28;20205;-64
2023/05/03 00:19:16;;;;;;;1.13;1.13;;;10.50;99.90;;;;;;5011316;28;20259;-63
2023/05/03 00:21:43;;;;;;;1.10;1.10;;;10.50;99.90;;;;;;5011999;28;20283;-63
2023/05/03 00:24:10;;;;;;;1.58;1.52;;;10.50;99.90;;;;;;5009666;28;20205;-63
2023/05/03 00:26:37;;;;;;;1.30;1.30;;;10.50;99.90;;;;;;5012333;28;20618;-63
2023/05/03 00:29:03;;;;;;;1.20;1.20;;;10.50;99.90;;;;;;5012135;28;20205;-64
2023/05/03 00:31:30;;;;;;;1.40;1.40;;;10.60;99.90;;;;;;5011580;28;20216;-63
2023/05/03 00:33:57;;;;;;;1.20;1.20;;;10.50;99.90;;;;;;5011436;28;20205;-63
2023/05/03 00:36:27;;;;;;;1.35;1.35;;;10.50;99.90;;;;;;5011101;28;20216;-63
2023/05/03 00:38:54;;;;;;;1.25;1.25;;;10.30;99.90;;;;;;5010881;28;20288;-63
2023/05/03 00:41:23;;;;;;;1.35;1.30;;;10.30;99.90;;;;;;5010277;28;20201;-64
2023/05/03 00:43:50;;;;;;;1.10;1.10;;;10.30;99.90;;;;;;5011005;28;20209;-64
2023/05/03 00:46:16;;;;;;;1.17;1.17;;;10.20;99.90;;;;;;5010636;28;20217;-62
2023/05/03 00:48:43;;;;;;;1.20;1.20;;;10.20;99.90;;;;;;5010677;28;20221;-62
2023/05/03 00:51:14;;;;;;;1.40;1.30;;;10.20;99.90;;;;;;5018854;28;20227;-61
2023/05/03 00:53:43;;;;;;;1.20;1.20;;;10.20;99.90;;;;;;5035023;28;20662;-61
2023/05/03 00:56:11;;;;;;;1.10;1.10;;;10.30;99.90;;;;;;5038612;28;20726;-62
2023/05/03 00:58:39;;;;;;;1.35;1.25;;;10.30;99.90;;;;;;5030923;28;20675;-62
2023/05/03 01:01:07;;;;;;;1.10;1.10;;;10.30;99.90;;;;;;5037726;28;20725;-62
2023/05/03 01:03:35;;;;;;;1.40;1.40;;;10.30;99.90;;;;;;5039254;28;20200;-61
2023/05/03 01:06:08;;;;;;;1.00;1.00;;;10.40;99.90;;;;;;5051260;28;20294;-62
2023/05/03 01:08:42;;;;;;;1.30;1.30;;;10.40;99.90;;;;;;5050010;28;20690;-64
2023/05/03 01:11:19;;;;;;;1.10;1.10;;;10.30;99.90;;;;;;5049216;28;20224;-63
2023/05/03 01:13:54;;;;;;;1.20;1.20;;;10.30;99.90;;;;;;5050049;28;20192;-63
2023/05/03 01:16:27;;;;;;;1.20;1.20;;;10.20;99.90;;;;;;5049914;28;20744;-63
2023/05/03 01:18:56;;;;;;;1.40;1.33;;;10.10;99.90;;;;;;5049790;28;20674;-63
2023/05/03 01:21:24;;;;;;;1.23;1.23;;;10.10;99.90;;;;;;5049423;28;20207;-62
2023/05/03 01:23:57;;;;;;;1.17;1.17;;;10.00;99.90;;;;;;5050036;28;20550;-63
2023/05/03 01:26:27;;;;;;;1.40;1.30;;;10.00;99.90;;;;;;5049965;28;20196;-63
2023/05/03 01:28:54;;;;;;;1.30;1.20;;;10.00;99.90;;;;;;5050056;28;20232;-63
2023/05/03 01:31:39;;;;;;;1.30;1.30;;;9.90;99.90;;;;;;5046993;28;20285;-63
2023/05/03 01:34:21;;;;;;;1.52;1.42;;;9.80;99.90;;;;;;5030550;28;20195;-63
2023/05/03 01:36:50;;;;;;;1.35;1.35;;;9.80;99.90;;;;;;5028493;28;20189;-63
2023/05/03 01:39:22;;;;;;;1.33;1.33;;;9.70;99.90;;;;;;5030396;28;20277;-62
2023/05/03 01:41:52;;;;;;;1.50;1.40;;;9.70;99.90;;;;;;5030490;28;20203;-63
2023/05/03 01:44:20;;;;;;;1.30;1.30;;;9.60;99.90;;;;;;5030288;28;20240;-63
2023/05/03 01:46:47;;;;;;;1.52;1.42;;;9.70;99.90;;;;;;5029851;28;20292;-64
2023/05/03 01:49:13;;;;;;;1.38;1.30;;;9.80;99.90;;;;;;5029585;28;20316;-62
2023/05/03 01:51:40;;;;;;;1.30;1.20;;;10.00;99.90;;;;;;5030809;28;20205;-63
2023/05/03 01:54:07;;;;;;;1.50;1.40;;;9.90;99.90;;;;;;5026124;28;20213;-63
2023/05/03 01:56:35;;;;;;;1.20;1.20;;;10.00;99.90;;;;;;5029915;28;20636;-63
2023/05/03 01:59:03;;;;;;;1.30;1.30;;;10.00;99.90;;;;;;5030841;28;20200;-69
2023/05/03 02:01:30;;;;;;;1.27;1.27;;;9.90;99.90;;;;;;5046444;28;20200;-63
2023/05/03 02:03:57;;;;;;;1.30;1.30;;;9.90;99.90;;;;;;5031932;28;20295;-64
2023/05/03 02:06:24;;;;;;;1.30;1.30;;;9.90;99.90;;;;;;5031778;28;20259;-63
2023/05/03 02:08:51;;;;;;;1.33;1.33;;;9.80;99.90;;;;;;5035228;28;20226;-62
2023/05/03 02:11:18;;;;;;;1.48;1.38;;;9.80;99.90;;;;;;5035548;28;20211;-62
2023/05/03 02:13:48;;;;;;;1.30;1.23;;;9.80;99.90;;;;;;5035711;28;20200;-63
2023/05/03 02:16:16;;;;;;;1.35;1.27;;;9.80;99.90;;;;;;5036329;28;20204;-64
2023/05/03 02:18:43;;;;;;;1.20;1.20;;;9.70;99.90;;;;;;5035951;28;20243;-62
2023/05/03 02:21:10;;;;;;;1.30;1.30;;;9.70;99.90;;;;;;5035272;28;20251;-63
2023/05/03 02:23:37;;;;;;;1.27;1.27;;;9.70;99.90;;;;;;5035058;28;20244;-63
2023/05/03 02:26:03;;;;;;;1.40;1.40;;;9.70;99.90;;;;;;5034322;28;20208;-63
2023/05/03 02:28:30;;;;;;;1.20;1.20;;;9.60;99.90;;;;;;5041699;28;20275;-63
2023/05/03 02:31:05;;;;;;;1.13;1.13;;;9.60;99.90;;;;;;5052575;28;20228;-63
2023/05/03 02:33:42;;;;;;;1.40;1.40;;;9.60;99.90;;;;;;5054016;28;20192;-63
2023/05/03 02:36:25;;;;;;;1.30;1.30;;;9.50;99.90;;;;;;5053566;28;20212;-63
2023/05/03 02:39:26;;;;;;;1.23;1.23;;;9.50;99.90;;;;;;5053268;28;20240;-63
2023/05/03 02:42:03;;;;;;;1.20;1.20;;;9.50;99.90;;;;;;5053538;28;20254;-63
2023/05/03 02:44:39;;;;;;;1.20;1.20;;;9.40;99.90;;;;;;5053356;28;20623;-63
2023/05/03 02:47:06;;;;;;;1.10;1.10;;;9.40;99.90;;;;;;5052993;28;20199;-63
2023/05/03 02:49:34;;;;;;;1.15;1.15;;;9.30;99.90;;;;;;5053097;28;20323;-63
2023/05/03 02:52:16;;;;;;;1.30;1.30;;;9.20;99.90;;;;;;5052354;28;20219;-63
2023/05/03 02:54:48;;;;;;;1.10;1.10;;;9.20;99.90;;;;;;5053830;28;20250;-63
2023/05/03 02:57:23;;;;;;;1.30;1.30;;;9.10;99.90;;;;;;5054107;28;20188;-63
2023/05/03 02:59:51;;;;;;;1.30;1.30;;;9.10;99.90;;;;;;5052745;28;20835;-63
2023/05/03 03:02:25;;;;;;;1.25;1.25;;;9.10;99.90;;;;;;5053001;28;20299;-63
2023/05/03 03:04:55;;;;;;;1.40;1.40;;;9.10;99.90;;;;;;5053231;28;20219;-63
2023/05/03 03:07:25;;;;;;;1.20;1.20;;;9.10;99.90;;;;;;5052745;28;20856;-63
2023/05/03 03:09:52;;;;;;;1.20;1.20;;;9.00;99.90;;;;;;5052415;28;20227;-63
2023/05/03 03:12:38;;;;;;;1.20;1.20;;;9.00;99.90;;;;;;5052928;28;20295;-63
2023/05/03 03:15:07;;;;;;;1.10;1.10;;;9.00;99.90;;;;;;5053163;28;20192;-63
2023/05/03 03:17:38;;;;;;;1.05;1.05;;;9.00;99.90;;;;;;5052326;28;20204;-63
2023/05/03 03:20:11;;;;;;;1.00;1.00;;;9.00;99.90;;;;;;5052468;28;20239;-61
2023/05/03 03:22:42;;;;;;;1.10;1.10;;;8.90;99.90;;;;;;5052883;28;20269;-63
2023/05/03 03:25:16;;;;;;;1.20;1.20;;;9.00;99.90;;;;;;5039068;28;20193;-63
2023/05/03 03:27:43;;;;;;;1.00;1.00;;;9.00;99.90;;;;;;5040838;28;20228;-62
2023/05/03 03:30:13;;;;;;;1.20;1.20;;;9.10;99.90;;;;;;5047760;28;20212;-63
2023/05/03 03:32:48;;;;;;;1.20;1.20;;;9.20;99.90;;;;;;5040425;28;20201;-63
2023/05/03 03:35:21;;;;;;;1.10;1.10;;;9.20;99.90;;;;;;5032750;28;20212;-62
2023/05/03 03:37:50;;;;;;;1.10;1.10;;;9.10;99.90;;;;;;5030772;28;20588;-62
2023/05/03 03:40:28;;;;;;;1.70;1.30;;;9.00;99.90;;;;;;5032417;28;20236;-62
2023/05/03 03:42:55;;;;;;;1.40;1.40;;;9.00;99.90;;;;;;5051678;28;20196;-64
2023/05/03 03:45:24;;;;;;;1.30;1.30;;;8.90;99.90;;;;;;5052718;28;20199;-68
2023/05/03 03:47:51;;;;;;;1.20;1.20;;;8.80;99.90;;;;;;5053232;28;20216;-64
2023/05/03 03:50:19;;;;;;;1.30;1.30;;;8.80;99.90;;;;;;5052318;28;20239;-62
2023/05/03 03:52:54;;;;;;;1.17;1.17;;;8.80;99.90;;;;;;5052805;28;20204;-62
2023/05/03 03:55:28;;;;;;;1.45;1.35;;;8.80;99.90;;;;;;5054728;28;20188;-63
2023/05/03 03:57:57;;;;;;;1.30;1.30;;;8.60;99.90;;;;;;5053189;28;20239;-63
2023/05/03 04:00:26;;;;;;;1.25;1.25;;;8.60;99.90;;;;;;5052733;28;20306;-64
2023/05/03 04:02:55;;;;;;;1.30;1.30;;;8.60;99.90;;;;;;5045423;28;20204;-63
2023/05/03 04:05:30;;;;;;;1.45;1.35;;;8.50;99.90;;;;;;5046460;28;20203;-64
2023/05/03 04:08:01;;;;;;;1.40;1.40;;;8.50;99.90;;;;;;5051900;28;20211;-64
2023/05/03 04:10:37;;;;;;;1.20;1.20;;;8.40;99.90;;;;;;5051663;28;20772;-63
2023/05/03 04:13:05;;;;;;;1.27;1.27;;;8.40;99.90;;;;;;5051924;28;20625;-62
2023/05/03 04:15:40;;;;;;;2.17;1.33;;;8.40;99.90;;;;;;5052057;28;20211;-65
2023/05/03 04:18:07;;;;;;;1.30;1.30;;;8.50;99.90;;;;;;5039457;28;20206;-65
2023/05/03 04:20:40;;;;;;;1.20;1.20;;;8.50;99.90;;;;;;5031270;28;20224;-64
2023/05/03 04:23:18;;;;;;;1.40;1.30;;;8.50;99.90;;;;;;5031960;28;20632;-64
2023/05/03 04:25:51;;;;;;;1.20;1.20;;;8.60;99.90;;;;;;5032136;28;20204;-65
2023/05/03 04:28:21;;;;;;;1.27;1.20;;;8.60;99.90;;;;;;5031453;28;20224;-63
2023/05/03 04:30:48;;;;;;;1.50;1.40;;;8.60;99.90;;;;;;5031161;28;20258;-65
2023/05/03 04:33:18;;;;;;;1.20;1.20;;;8.60;99.90;;;;;;5031597;28;20672;-65
2023/05/03 04:35:49;;;;;;;1.20;1.20;;;8.70;99.90;;;;;;5034127;28;20234;-65
2023/05/03 04:38:21;;;;;;;1.40;1.40;;;8.80;99.90;;;;;;5033320;28;20276;-65
2023/05/03 04:40:50;;;;;;;1.23;1.23;;;8.80;99.90;;;;;;5037534;28;20308;-64
2023/05/03 04:43:20;;;;;;;1.52;1.48;;;8.80;99.90;;;;;;5039190;28;21032;-62
2023/05/03 04:45:50;;;;;;;1.20;1.20;;;8.70;99.90;;;;;;5033714;28;20577;-64
2023/05/03 04:48:19;;;;;;;1.20;1.20;;;8.80;99.90;;;;;;5040839;28;20220;-62
2023/05/03 04:50:51;;;;;;;1.35;1.30;;;8.80;99.90;;;;;;5048835;28;20224;-63
2023/05/03 04:53:21;;;;;;;1.13;1.13;;;8.80;99.90;;;;;;5051726;28;20214;-63
2023/05/03 04:55:49;;;;;;;1.52;1.42;;;8.80;99.90;;;;;;5051178;28;20299;-62
2023/05/03 04:58:17;;;;;;;1.58;1.30;;;8.80;99.90;;;;;;5052393;28;20200;-62
2023/05/03 05:00:49;;;;;;;1.40;1.40;;;8.80;99.90;;;;;;5051536;28;20232;-63
2023/05/03 05:03:23;;;;;;;1.40;1.40;;;8.90;99.90;;;;;;5051328;28;20235;-64
2023/05/03 05:05:58;;;;;;;1.48;1.40;;;8.90;99.90;;;;;;5049616;28;20212;-62
2023/05/03 05:08:25;;;;;;;1.50;1.40;;;8.90;99.90;;;;;;5031661;28;20234;-63
2023/05/03 05:10:54;;;;;;;1.50;1.40;;;8.80;99.90;;;;;;5030931;28;20240;-62
2023/05/03 05:13:23;;;;;;;1.30;1.30;;;9.00;99.90;;;;;;5031722;28;20211;-62
2023/05/03 05:15:51;;;;;;;1.45;1.38;;;9.10;99.90;;;;;;5030847;28;20204;-63
2023/05/03 05:18:18;;;;;;;1.37;1.30;;;9.30;99.90;;;;;;5031112;28;20282;-62
2023/05/03 05:20:45;;;;;;;1.25;1.25;;;9.40;99.90;;;;;;5037151;28;20291;-62
2023/05/03 05:23:13;;;;;;;1.23;1.23;;;9.60;99.90;;;;;;5035656;28;20206;-63
2023/05/03 05:25:40;;;;;;;1.30;1.30;;;9.70;99.90;;;;;;5030454;28;20205;-62
2023/05/03 05:28:11;;;;;;;1.23;1.23;;;9.80;99.90;;;;;;5030854;28;20255;-62
2023/05/03 05:30:41;;;;;;;1.45;1.30;;;10.00;99.90;;;;;;5028154;28;20626;-62
2023/05/03 05:33:13;;;;;;;1.15;1.15;;;10.20;99.90;;;;;;5037729;28;20615;-61
2023/05/03 05:35:46;;;;;;;1.30;1.30;;;10.30;99.90;;;;;;5034646;28;20646;-62
2023/05/03 05:38:16;;;;;;;1.40;1.40;;;10.50;99.90;;;;;;5031077;28;20189;-64
2023/05/03 05:40:43;;;;;;;1.45;1.35;;;10.60;99.90;;;;;;5029439;28;20731;-63
2023/05/03 05:43:14;;;;;;;1.40;1.40;;;10.70;99.90;;;;;;5032070;28;20299;-63
2023/05/03 05:45:41;;;;;;;1.80;1.70;;;10.80;99.90;;;;;;5031747;28;20211;-64
2023/05/03 05:48:08;;;;;;;1.77;1.52;;;10.90;99.90;;;;;;5031215;28;20215;-64
2023/05/03 05:50:37;;;;;;;1.50;1.50;;;10.80;99.90;;;;;;5031247;28;20307;-62
2023/05/03 05:53:09;;;;;;;1.55;1.55;;;10.90;99.90;;;;;;5031011;28;20204;-64
2023/05/03 05:55:37;;;;;;;1.70;1.60;;;11.00;99.90;;;;;;5030718;28;20243;-63
2023/05/03 05:58:08;;;;;;;1.83;1.73;;;11.00;99.90;;;;;;5028544;28;20205;-63
2023/05/03 06:00:39;;;;;;;1.80;1.70;;;11.00;99.90;;;;;;5040852;28;20228;-62
2023/05/03 06:03:06;;;;;;;1.77;1.67;;;11.10;99.90;;;;;;5048042;28;20278;-65
2023/05/03 06:05:36;;;;;;;2.05;1.95;;;11.20;99.90;;;;;;5034414;28;20213;-63
2023/05/03 06:08:09;;;;;;;1.58;1.58;;;11.20;99.90;;;;;;5029703;28;20262;-64
2023/05/03 06:10:47;;;;;;;1.90;1.80;;;11.30;99.90;;;;;;5028790;28;20247;-63
2023/05/03 06:13:16;;;;;;;1.92;1.83;;;11.20;99.90;;;;;;5029898;28;20203;-65
2023/05/03 06:15:45;;;;;;;1.85;1.75;;;11.20;99.90;;;;;;5029966;28;20210;-65
2023/05/03 06:18:12;;;;;;;2.20;2.10;;;11.20;99.90;;;;;;5030520;28;20266;-64
2023/05/03 06:20:40;;;;;;;2.15;2.00;;;11.20;99.90;;;;;;5029241;28;20221;-64
2023/05/03 06:23:08;;;;;;;2.08;1.98;;;11.00;99.90;;;;;;5030519;28;20212;-65
2023/05/03 06:25:39;;;;;;;2.00;1.90;;;11.00;99.90;;;;;;5030579;28;20205;-65
2023/05/03 06:28:08;;;;;;;4.63;2.40;;;11.00;99.90;;;;;;5028221;28;20244;-69
2023/05/03 06:30:39;;;;;;;2.50;2.05;;;11.00;99.90;;;;;;5029197;28;20240;-65
2023/05/03 06:33:06;;;;;;;1.90;1.80;;;11.20;99.90;;;;;;5029629;28;20589;-63
2023/05/03 06:35:36;;;;;;;2.28;2.08;;;11.30;99.90;;;;;;5030020;28;20266;-64
2023/05/03 06:38:03;;;;;;;1.90;1.80;;;11.50;99.90;;;;;;5029756;28;20262;-65
2023/05/03 06:40:36;;;;;;;1.90;1.80;;;11.40;99.90;;;;;;5029113;28;20251;-64
2023/05/03 06:43:08;;;;;;;1.95;1.85;;;11.40;99.90;;;;;;5029875;28;20227;-65
2023/05/03 06:45:37;;;;;;;2.00;1.90;;;11.40;99.90;;;;;;5029709;28;20213;-64
2023/05/03 06:48:07;;;;;;;1.80;1.70;;;11.50;99.90;;;;;;5029189;28;20205;-65
2023/05/03 06:50:34;;;;;;;2.13;2.03;;;11.60;99.90;;;;;;5029186;28;20259;-65
2023/05/03 06:53:01;;;;;;;1.80;1.70;;;11.60;99.90;;;;;;5031337;28;20211;-64
2023/05/03 06:55:33;;;;;;;2.70;2.03;;;11.70;99.90;;;;;;5033324;28;20219;-64
2023/05/03 06:58:10;;;;;;;1.95;1.85;;;11.80;99.90;;;;;;5032821;28;20283;-63
2023/05/03 07:00:43;;;;;;;1.65;1.55;;;11.90;99.90;;;;;;5036324;28;20216;-64
2023/05/03 07:03:10;;;;;;;1.88;1.77;;;12.00;99.90;;;;;;5035291;28;20215;-63
2023/05/03 07:05:37;;;;;;;2.00;1.90;;;12.10;99.90;;;;;;5034098;28;20693;-65
2023/05/03 07:08:04;;;;;;;2.15;2.00;;;12.20;99.90;;;;;;5034326;28;20205;-65
2023/05/03 07:10:31;;;;;;;1.95;1.85;;;12.20;99.90;;;;;;5033195;28;20240;-64
2023/05/03 07:13:21;;;;;;;2.20;2.10;;;12.20;99.90;;;;;;5034341;28;20212;-64
2023/05/03 07:15:50;;;;;;;1.88;1.77;;;12.30;99.90;;;;;;5033713;28;20668;-64
2023/05/03 07:18:25;;;;;;;2.17;2.08;;;12.40;99.90;;;;;;5033939;28;20205;-64
2023/05/03 07:20:56;;;;;;;1.90;1.80;;;12.60;99.90;;;;;;5033661;28;20226;-64
2023/05/03 07:23:33;;;;;;;2.00;1.90;;;12.60;99.90;;;;;;5033634;28;20236;-64
2023/05/03 07:26:04;;;;;;;2.10;2.00;;;12.70;99.90;;;;;;5033842;28;20666;-64
2023/05/03 07:28:33;;;;;;;2.28;2.10;;;12.60;99.90;;;;;;5033637;28;20216;-64
2023/05/03 07:31:00;;;;;;;2.10;2.00;;;12.70;99.90;;;;;;5033192;28;20722;-64
2023/05/03 07:33:27;;;;;;;2.30;2.20;;;12.80;99.90;;;;;;5032108;28;20909;-62
2023/05/03 07:35:54;;;;;;;2.20;2.10;;;13.00;99.90;;;;;;5032591;28;20234;-65
2023/05/03 07:38:21;;;;;;;2.28;2.17;;;13.20;99.90;;;;;;5032543;28;20210;-63
2023/05/03 07:40:49;;;;;;;2.45;2.30;;;13.20;99.90;;;;;;5031794;28;20228;-63
2023/05/03 07:43:22;;;;;;;2.30;2.20;;;13.30;99.90;;;;;;5032339;28;20280;-63
2023/05/03 07:45:54;;;;;;;2.10;2.00;;;13.40;99.90;;;;;;5032518;28;20204;-63
2023/05/03 07:48:29;;;;;;;2.15;2.05;;;13.50;99.90;;;;;;5032158;28;20193;-63
2023/05/03 07:51:02;;;;;;;2.22;2.13;;;13.70;99.90;;;;;;5031388;28;20235;-63
2023/05/03 07:53:35;;;;;;;2.00;1.90;;;13.50;99.90;;;;;;5032456;28;20213;-63
2023/05/03 07:56:02;;;;;;;2.28;2.05;;;13.70;99.90;;;;;;5032587;28;20651;-62
2023/05/03 07:58:32;;;;;;;2.65;2.28;;;13.80;99.90;;;;;;5031831;28;20208;-63
2023/05/03 08:01:00;;;;;;;2.10;2.00;;;13.80;99.90;;;;;;5031011;28;21035;-62
2023/05/03 08:03:32;;;;;;;2.20;2.10;;;13.90;99.90;;;;;;5032810;28;20209;-63
2023/05/03 08:06:10;;;;;;;2.22;2.13;;;13.90;99.90;;;;;;5031844;28;20200;-63
2023/05/03 08:08:43;;;;;;;1.95;1.85;;;13.90;99.90;;;;;;5031797;28;20220;-63
2023/05/03 08:11:10;;;;;;;1.77;1.67;;;14.10;99.90;;;;;;5031540;28;20323;-63
2023/05/03 08:13:44;;;;;;;1.85;1.75;;;14.30;99.90;;;;;;5031560;28;20215;-63
2023/05/03 08:16:18;;;;;;;2.10;2.00;;;14.50;99.90;;;;;;5031707;28;20193;-63
2023/05/03 08:18:56;;;;;;;2.03;1.92;;;14.40;99.90;;;;;;5031704;28;20250;-63
2023/05/03 08:21:29;;;;;;;2.13;2.03;;;14.30;99.90;;;;;;5031343;28;20843;-63
2023/05/03 08:23:59;;;;;;;2.00;1.90;;;14.50;99.90;;;;;;5031590;28;20193;-63
2023/05/03 08:26:30;;;;;;;2.08;1.98;;;14.70;99.90;;;;;;5031803;28;20646;-63
2023/05/03 08:29:02;;;;;;;2.13;2.00;;;14.80;99.90;;;;;;5031731;28;20223;-63
2023/05/03 08:31:33;;;;;;;2.13;2.03;;;15.00;99.90;;;;;;5031757;28;20270;-63
2023/05/03 08:34:09;;;;;;;2.10;2.00;;;15.10;99.90;;;;;;5031223;28;20200;-63
2023/05/03 08:36:42;;;;;;;1.80;1.70;;;15.10;99.90;;;;;;5032337;28;20236;-63
2023/05/03 08:39:14;;;;;;;1.83;1.73;;;15.10;99.90;;;;;;5032283;28;20273;-62
2023/05/03 08:41:44;;;;;;;1.98;1.88;;;15.10;99.90;;;;;;5031622;28;20258;-63
2023/05/03 08:44:21;;;;;;;2.10;1.90;;;15.20;99.90;;;;;;5031606;28;20204;-63
2023/05/03 08:46:50;;;;;;;1.80;1.70;;;15.40;99.90;;;;;;5031339;28;20312;-63
2023/05/03 08:49:18;;;;;;;1.90;1.80;;;15.60;99.90;;;;;;5030968;28;20220;-65
2023/05/03 08:51:47;;;;;;;2.03;1.80;;;15.50;99.90;;;;;;5031364;28;20296;-65
2023/05/03 08:54:17;;;;;;;2.97;2.05;;;15.50;99.90;;;;;;5030867;28;20295;-64
2023/05/03 08:56:46;;;;;;;1.92;1.83;;;15.60;99.90;;;;;;5031538;28;20204;-64
2023/05/03 08:59:16;;;;;;;1.85;1.75;;;15.70;99.90;;;;;;5031046;28;20205;-64
2023/05/03 09:01:45;;;;;;;2.10;2.00;;;15.80;99.90;;;;;;5030763;28;20651;-65
2023/05/03 09:04:21;;;;;;;2.10;2.00;;;16.00;99.90;;;;;;5031122;28;20205;-63
2023/05/03 09:06:52;;;;;;;1.98;1.88;;;16.00;99.90;;;;;;5030462;28;20643;-65
2023/05/03 09:09:31;;;;;;;2.00;1.90;;;15.90;99.90;;;;;;5031498;28;20294;-65
2023/05/03 09:12:04;;;;;;;2.00;1.90;;;15.90;99.90;;;;;;5031914;28;20299;-64
2023/05/03 09:14:43;;;;;;;1.95;1.80;;;16.00;99.90;;;;;;5031332;28;20235;-64
2023/05/03 09:17:19;;;;;;;2.00;1.90;;;16.10;99.90;;;;;;5030975;28;20278;-65
2023/05/03 09:19:58;;;;;;;2.00;1.90;;;16.20;99.90;;;;;;5030318;28;20270;-65
2023/05/03 09:22:29;;;;;;;2.00;1.90;;;16.40;99.90;;;;;;5030777;28;20355;-64
2023/05/03 09:24:58;;;;;;;1.92;1.83;;;16.50;99.90;;;;;;5030973;28;20200;-64
2023/05/03 09:27:28;;;;;;;1.80;1.70;;;16.70;99.90;;;;;;5030906;28;20215;-64
2023/05/03 09:30:16;;;;;;;6.15;1.92;;;16.80;99.90;;;;;;5029828;28;20217;-64
2023/05/03 09:32:51;;;;;;;2.70;2.50;;;17.00;99.90;;;;;;5030584;28;20710;-65
2023/05/03 09:35:21;;;;;;;1.98;1.88;;;17.10;99.90;;;;;;5030427;28;20204;-65
2023/05/03 09:37:48;;;;;;;1.80;1.70;;;17.00;99.90;;;;;;5030190;28;20211;-65
2023/05/03 09:40:24;;;;;;;2.20;2.00;;;17.00;99.90;;;;;;5030128;28;20225;-64
2023/05/03 09:43:19;;;;;;;1.90;1.80;;;17.00;99.90;;;;;;5030592;28;20224;-64
2023/05/03 09:46:09;;;;;;;1.85;1.75;;;17.30;99.90;;;;;;5031128;28;20193;-64
2023/05/03 09:48:39;;;;;;;2.03;1.92;;;17.60;99.90;;;;;;5031633;28;20200;-64
2023/05/03 09:51:11;;;;;;;2.20;2.00;;;17.70;99.90;;;;;;5030500;28;20319;-65
2023/05/03 09:53:40;;;;;;;2.20;2.00;;;17.80;99.90;;;;;;5031281;28;20275;-65
2023/05/03 09:56:11;;;;;;;1.90;1.80;;;17.50;99.90;;;;;;5030568;28;20216;-64
2023/05/03 09:58:38;;;;;;;2.05;1.95;;;17.70;99.90;;;;;;5029777;28;20200;-65
2023/05/03 10:01:06;;;;;;;1.90;1.80;;;17.70;99.90;;;;;;5029366;28;20727;-64
2023/05/03 10:03:42;;;;;;;1.98;1.85;;;17.80;99.90;;;;;;5030389;28;20259;-66
2023/05/03 10:06:22;;;;;;;2.08;1.98;;;18.00;99.90;;;;;;5030537;28;20646;-65
2023/05/03 10:08:53;;;;;;;2.17;2.08;;;17.90;99.90;;;;;;5030752;28;20192;-65
2023/05/03 10:11:29;;;;;;;2.13;2.03;;;17.90;99.90;;;;;;5034234;28;20205;-63
2023/05/03 10:13:56;;;;;;;2.20;2.10;;;17.80;99.90;;;;;;5044381;28;20314;-63
2023/05/03 10:16:29;;;;;;;1.95;1.85;;;17.70;99.90;;;;;;5032546;28;20564;-66
2023/05/03 10:19:05;;;;;;;1.70;1.65;;;18.00;99.90;;;;;;5032421;28;20247;-65
2023/05/03 10:21:47;;;;;;;2.05;1.95;;;18.30;99.90;;;;;;5030749;28;20216;-65
2023/05/03 10:24:16;;;;;;;1.77;1.70;;;18.50;99.90;;;;;;5031005;28;20223;-65
2023/05/03 10:26:49;;;;;;;2.00;1.90;;;18.50;99.90;;;;;;5030375;28;20303;-63
2023/05/03 10:29:53;;;;;;;1.80;1.70;;;18.50;99.90;;;;;;5035531;28;20240;-62
2023/05/03 10:32:38;;;;;;;1.90;1.80;;;18.50;99.90;;;;;;5035580;28;20914;-63
2023/05/03 10:35:09;;;;;;;2.05;1.95;;;18.50;99.90;;;;;;5035294;28;20944;-65
2023/05/03 10:37:40;;;;;;;2.42;2.20;;;18.50;99.90;;;;;;5034616;28;20220;-63
2023/05/03 10:40:12;;;;;;;1.83;1.73;;;18.80;99.90;;;;;;5034082;28;20299;-62
2023/05/03 10:42:45;;;;;;;1.90;1.80;;;18.80;99.90;;;;;;5033879;28;20190;-64
2023/05/03 10:45:25;;;;;;;1.73;1.63;;;19.00;99.90;;;;;;5033910;28;20762;-64
2023/05/03 10:48:21;;;;;;;1.55;1.55;;;19.30;99.90;;;;;;5033941;28;20221;-63
2023/05/03 10:50:53;;;;;;;1.90;1.50;;;19.60;99.90;;;;;;4972913;28;20241;-64
2023/05/03 10:53:39;;;;;;;2.08;1.98;;;19.50;99.90;;;;;;5021912;28;20204;-64
2023/05/03 10:56:15;;;;;;;1.50;1.50;;;19.60;99.90;;;;;;5033863;28;20212;-66
2023/05/03 10:58:50;;;;;;;1.70;1.60;;;19.60;99.90;;;;;;5033370;28;20258;-65
2023/05/03 11:01:19;;;;;;;1.60;1.50;;;19.40;99.90;;;;;;5033334;28;20734;-65
2023/05/03 11:03:54;;;;;;;2.00;1.90;;;19.60;99.90;;;;;;5033171;28;20204;-64
2023/05/03 11:06:35;;;;;;;1.95;1.85;;;19.50;99.90;;;;;;5034134;28;20224;-64
2023/05/03 11:09:07;;;;;;;2.00;1.90;;;19.40;99.90;;;;;;5033546;28;20216;-63
2023/05/03 11:11:39;;;;;;;2.25;2.15;;;19.40;99.90;;;;;;5034764;28;20216;-65
2023/05/03 11:14:10;;;;;;;1.80;1.70;;;19.50;99.90;;;;;;5034455;28;20655;-64
2023/05/03 11:16:46;;;;;;;1.60;1.50;;;19.60;99.90;;;;;;5034393;28;20220;-66
2023/05/03 11:19:23;;;;;;;1.60;1.50;;;19.60;99.90;;;;;;5034485;28;20192;-63
2023/05/03 11:21:51;;;;;;;1.65;1.55;;;19.80;99.90;;;;;;5034056;28;20275;-66
2023/05/03 11:24:22;;;;;;;1.80;1.70;;;20.00;99.90;;;;;;5034558;28;20204;-65
2023/05/03 11:26:49;;;;;;;1.80;1.70;;;20.20;99.90;;;;;;5034636;28;20205;-65
2023/05/03 11:29:24;;;;;;;1.95;1.80;;;20.30;99.90;;;;;;5034265;28;20228;-65
2023/05/03 11:31:52;;;;;;;1.65;1.55;;;20.50;99.90;;;;;;5033960;28;20584;-65
2023/05/03 11:34:23;;;;;;;1.40;1.40;;;20.30;99.90;;;;;;5033862;28;20227;-66
2023/05/03 11:36:58;;;;;;;1.83;1.73;;;20.50;99.90;;;;;;5033854;28;20188;-66
2023/05/03 11:39:28;;;;;;;1.58;1.50;;;20.20;99.90;;;;;;5032961;28;20228;-66
2023/05/03 11:42:05;;;;;;;1.70;1.60;;;19.90;99.90;;;;;;5033426;28;20196;-65
2023/05/03 11:44:43;;;;;;;1.70;1.60;;;19.90;99.90;;;;;;5033519;28;20255;-66
2023/05/03 11:47:11;;;;;;;1.60;1.50;;;20.20;99.90;;;;;;5033048;28;20243;-66
2023/05/03 11:49:38;;;;;;;1.40;1.30;;;20.60;99.90;;;;;;5031939;28;20950;-66
2023/05/03 11:52:14;;;;;;;1.70;1.48;;;20.90;99.90;;;;;;5032930;28;20717;-65
2023/05/03 11:54:49;;;;;;;1.40;1.40;;;20.90;99.90;;;;;;5036603;28;20204;-65
2023/05/03 11:57:26;;;;;;;1.45;1.35;;;21.00;99.90;;;;;;5035824;28;20188;-66
2023/05/03 12:00:00;;;;;;;1.80;1.60;;;21.30;99.90;;;;;;5032874;28;20236;-65
2023/05/03 12:02:38;;;;;;;1.30;1.30;;;21.30;99.90;;;;;;5036271;28;20188;-65
2023/05/03 12:05:14;;;;;;;1.20;1.20;;;21.40;99.90;;;;;;5036155;28;20199;-65
2023/05/03 12:07:49;;;;;;;1.60;1.50;;;21.40;99.90;;;;;;5033226;28;20185;-65
2023/05/03 12:10:32;;;;;;;1.40;1.30;;;21.40;99.90;;;;;;5032402;28;20311;-64
2023/05/03 12:13:03;;;;;;;1.40;1.30;;;21.50;99.90;;;;;;5032562;28;20197;-65
2023/05/03 12:15:44;;;;;;;1.40;1.30;;;21.70;99.90;;;;;;5032591;28;20205;-64
2023/05/03 12:18:16;;;;;;;1.35;1.33;;;21.80;99.90;;;;;;5032719;28;20295;-64
2023/05/03 12:20:43;;;;;;;1.15;1.15;;;22.00;99.90;;;;;;5031379;28;20224;-66
2023/05/03 12:23:11;;;;;;;1.50;1.40;;;22.20;99.90;;;;;;5031990;28;20214;-64
2023/05/03 12:25:52;;;;;;;1.08;1.08;;;22.20;99.90;;;;;;5032064;28;20205;-65
2023/05/03 12:28:27;;;;;;;1.33;1.33;;;22.40;99.90;;;;;;5032403;28;20212;-65
2023/05/03 12:30:54;;;;;;;1.30;1.30;;;22.50;99.90;;;;;;5032011;28;20228;-65
2023/05/03 12:33:24;;;;;;;2.03;1.50;;;22.50;99.90;;;;;;5031802;28;20208;-65
2023/05/03 12:36:01;;;;;;;1.30;1.30;;;22.30;99.90;;;;;;5035975;28;20258;-66
2023/05/03 12:38:31;;;;;;;1.70;1.33;;;22.30;99.90;;;;;;5039600;28;20242;-64
2023/05/03 12:41:06;;;;;;;1.58;1.48;;;22.40;99.90;;;;;;5035035;28;20315;-65
2023/05/03 12:43:35;;;;;;;1.70;1.60;;;22.20;99.90;;;;;;5032256;28;20203;-65
2023/05/03 12:46:04;;;;;;;1.67;1.60;;;21.80;99.90;;;;;;5030365;28;20212;-65
2023/05/03 12:48:37;;;;;;;1.58;1.48;;;21.60;99.90;;;;;;5031561;28;20215;-65
2023/05/03 12:51:07;;;;;;;1.38;1.38;;;21.50;99.90;;;;;;5030709;28;20229;-65
2023/05/03 12:53:34;;;;;;;1.45;1.35;;;21.40;99.90;;;;;;5031128;28;20192;-64
2023/05/03 12:56:12;;;;;;;1.60;1.50;;;21.40;99.90;;;;;;5031147;28;20189;-65
2023/05/03 12:58:43;;;;;;;1.30;1.30;;;21.30;99.90;;;;;;5031081;28;20189;-66
2023/05/03 13:01:11;;;;;;;2.42;1.73;;;21.40;99.90;;;;;;5030760;28;20315;-65
2023/05/03 13:03:38;;;;;;;1.63;1.50;;;21.80;99.90;;;;;;5030857;28;20859;-66
2023/05/03 13:06:06;;;;;;;1.40;1.30;;;21.90;99.90;;;;;;5031356;28;20204;-64
2023/05/03 13:08:36;;;;;;;2.10;1.30;;;22.00;99.90;;;;;;5031348;28;20292;-65
2023/05/03 13:11:07;;;;;;;1.75;1.65;;;22.00;99.90;;;;;;5030175;28;20232;-66
2023/05/03 13:13:39;;;;;;;1.50;1.40;;;21.90;99.90;;;;;;5030593;28;20222;-66